Arivaca, Arizona
Current Conditions -  °F | °C
As of 9:54 AM on Saturday 25 Oct 2014 (Local Time) from KOLS Reporting Station
Clear Clear  
Wind Chill: 77°   Ceiling: Unl
Heat Index: 78°   Visibility: 10mi
Dew Point: 48°   Wind: 0mph
Humidity: 36%   Direction: NA
Pressure: 30.2"   Gusts: NA
Location:  31.57°N, 111.33°W
Report Text: KOLS 251654Z AUTO 00000KT 10SM CLR 25/09 A3020 RMK AO2 SLP168 T02500089
Loading
Personal Weather Stations






























Interactive Weather Map New forecast layout! Learn more

10-Day Weather Forecast

Advertisements
Track Severe Weather on mobile